createdAt,value
2024-01-05T00:01:28.687Z,5.10
2024-01-05T00:03:55.385Z,5.80
2024-01-05T00:06:22.208Z,5.90
2024-01-05T00:08:48.927Z,6.40
2024-01-05T00:11:22.010Z,5.25
2024-01-05T00:13:48.970Z,5.22
2024-01-05T00:16:22.286Z,5.20
2024-01-05T00:18:49.596Z,5.30
2024-01-05T00:21:23.414Z,5.30
2024-01-05T00:23:51.192Z,4.88
2024-01-05T00:26:18.478Z,6.18
2024-01-05T00:28:46.215Z,5.43
2024-01-05T00:31:13.855Z,5.45
2024-01-05T00:33:41.508Z,5.75
2024-01-05T00:36:10.001Z,5.97
2024-01-05T00:38:36.983Z,5.63
2024-01-05T00:41:04.287Z,5.68
2024-01-05T00:43:30.836Z,5.63
2024-01-05T00:45:57.750Z,5.88
2024-01-05T00:48:24.490Z,5.63
2024-01-05T00:50:51.133Z,5.65
2024-01-05T00:53:17.730Z,5.25
2024-01-05T00:55:44.308Z,5.25
2024-01-05T00:58:10.889Z,5.85
2024-01-05T01:00:37.461Z,4.68
2024-01-05T01:03:04.648Z,5.13
2024-01-05T01:05:31.295Z,5.65
2024-01-05T01:07:57.953Z,5.57
2024-01-05T01:10:24.539Z,5.70
2024-01-05T01:12:51.629Z,6.00
2024-01-05T01:15:18.428Z,6.18
2024-01-05T01:17:45.236Z,5.35
2024-01-05T01:20:11.927Z,5.10
2024-01-05T01:22:38.768Z,5.80
2024-01-05T01:25:05.798Z,6.18
2024-01-05T01:27:32.578Z,5.82
2024-01-05T01:29:59.516Z,6.43
2024-01-05T01:32:26.297Z,5.70
2024-01-05T01:34:52.970Z,5.20
2024-01-05T01:37:19.567Z,5.63
2024-01-05T01:39:46.151Z,5.25
2024-01-05T01:42:13.002Z,6.07
2024-01-05T01:44:39.569Z,5.75
2024-01-05T01:47:06.486Z,6.03
2024-01-05T01:49:33.143Z,5.70
2024-01-05T01:52:00.119Z,5.70
2024-01-05T01:54:29.656Z,5.47
2024-01-05T01:56:57.444Z,5.75
2024-01-05T01:59:24.112Z,5.85
2024-01-05T02:01:50.745Z,5.57
2024-01-05T02:04:19.574Z,6.15
2024-01-05T02:06:46.694Z,5.97
2024-01-05T02:09:13.853Z,6.45
2024-01-05T02:11:40.549Z,6.60
2024-01-05T02:14:07.085Z,5.70
2024-01-05T02:16:33.601Z,7.22
2024-01-05T02:19:00.288Z,6.63
2024-01-05T02:21:31.393Z,5.93
2024-01-05T02:23:58.163Z,5.85
2024-01-05T02:26:24.800Z,5.47
2024-01-05T02:28:51.388Z,6.38
2024-01-05T02:31:18.076Z,6.13
2024-01-05T02:33:45.031Z,5.82
2024-01-05T02:36:11.935Z,5.55
2024-01-05T02:38:38.520Z,5.85
2024-01-05T02:41:07.141Z,5.53
2024-01-05T02:43:33.722Z,5.75
2024-01-05T02:46:00.327Z,6.40
2024-01-05T02:48:27.042Z,5.32
2024-01-05T02:50:53.769Z,5.28
2024-01-05T02:53:20.344Z,5.65
2024-01-05T02:55:46.859Z,5.50
2024-01-05T02:58:13.405Z,5.93
2024-01-05T03:00:40.090Z,6.32
2024-01-05T03:03:07.007Z,6.00
2024-01-05T03:05:33.761Z,6.13
2024-01-05T03:08:00.646Z,5.80
2024-01-05T03:10:27.245Z,6.93
2024-01-05T03:12:53.869Z,6.53
2024-01-05T03:15:20.493Z,6.45
2024-01-05T03:17:49.094Z,6.70
2024-01-05T03:20:18.407Z,5.60
2024-01-05T03:22:45.191Z,6.22
2024-01-05T03:25:11.699Z,7.07
2024-01-05T03:27:38.333Z,5.85
2024-01-05T03:30:05.556Z,6.50
2024-01-05T03:32:32.360Z,5.63
2024-01-05T03:34:59.038Z,5.70
2024-01-05T03:37:25.712Z,5.43
2024-01-05T03:39:52.303Z,5.68
2024-01-05T03:42:19.148Z,6.07
2024-01-05T03:44:45.844Z,5.80
2024-01-05T03:47:12.418Z,5.75
2024-01-05T03:49:39.248Z,6.38
2024-01-05T03:52:05.944Z,5.28
2024-01-05T03:54:32.626Z,5.45
2024-01-05T03:56:59.245Z,5.95
2024-01-05T03:59:25.972Z,5.57
2024-01-05T04:01:52.546Z,5.40
2024-01-05T04:04:19.359Z,4.90
2024-01-05T04:06:46.749Z,5.32
2024-01-05T04:09:13.780Z,5.50
2024-01-05T04:11:40.753Z,5.55
2024-01-05T04:14:07.992Z,5.15
2024-01-05T04:16:34.785Z,5.10
2024-01-05T04:19:02.374Z,4.63
2024-01-05T04:21:29.146Z,5.65
2024-01-05T04:23:59.144Z,4.47
2024-01-05T04:26:26.281Z,3.00
2024-01-05T04:28:52.898Z,5.30
2024-01-05T04:31:19.475Z,5.22
2024-01-05T04:33:46.204Z,4.88
2024-01-05T04:36:16.614Z,4.90
2024-01-05T04:38:43.930Z,4.80
2024-01-05T04:41:12.346Z,4.47
2024-01-05T04:43:38.897Z,4.40
2024-01-05T04:46:06.656Z,5.00
2024-01-05T04:48:33.489Z,4.35
2024-01-05T04:51:01.208Z,5.05
2024-01-05T04:53:27.860Z,5.50
2024-01-05T04:55:54.440Z,5.15
2024-01-05T04:58:21.336Z,4.97
2024-01-05T05:00:48.008Z,4.80
2024-01-05T05:03:17.374Z,5.50
2024-01-05T05:05:44.071Z,4.68
2024-01-05T05:08:14.188Z,5.28
2024-01-05T05:10:41.070Z,5.18
2024-01-05T05:13:07.658Z,4.93
2024-01-05T05:15:34.444Z,4.70
2024-01-05T05:18:01.325Z,4.82
2024-01-05T05:20:28.142Z,4.70
2024-01-05T05:22:54.697Z,4.78
2024-01-05T05:25:21.316Z,4.80
2024-01-05T05:27:47.876Z,5.18
2024-01-05T05:30:14.717Z,4.28
2024-01-05T05:32:41.369Z,4.22
2024-01-05T05:35:08.309Z,4.60
2024-01-05T05:37:34.884Z,5.10
2024-01-05T05:40:01.508Z,4.90
2024-01-05T05:42:28.180Z,3.72
2024-01-05T05:44:54.894Z,3.95
2024-01-05T05:47:21.829Z,4.45
2024-01-05T05:49:48.470Z,4.32
2024-01-05T05:52:15.614Z,4.15
2024-01-05T05:54:42.272Z,3.53
2024-01-05T05:57:10.259Z,3.35
2024-01-05T05:59:36.910Z,3.50
2024-01-05T06:02:04.126Z,4.05
2024-01-05T06:04:30.782Z,4.18
2024-01-05T06:06:58.053Z,4.78
2024-01-05T06:09:26.592Z,4.22
2024-01-05T06:11:53.245Z,4.22
2024-01-05T06:14:19.877Z,4.20
2024-01-05T06:16:46.522Z,4.60
2024-01-05T06:19:13.429Z,4.53
2024-01-05T06:21:40.073Z,4.35
2024-01-05T06:24:06.675Z,3.90
2024-01-05T06:26:33.254Z,3.72
2024-01-05T06:28:59.799Z,3.47
2024-01-05T06:31:26.709Z,3.42
2024-01-05T06:33:53.290Z,3.53
2024-01-05T06:36:19.972Z,3.80
2024-01-05T06:38:46.524Z,3.20
2024-01-05T06:41:13.123Z,2.95
2024-01-05T06:43:39.649Z,3.05
2024-01-05T06:46:06.227Z,3.25
2024-01-05T06:48:32.987Z,2.85
2024-01-05T06:51:00.921Z,2.88
2024-01-05T06:53:29.934Z,1.92
2024-01-05T06:55:56.560Z,2.92
2024-01-05T06:58:24.920Z,1.85
2024-01-05T07:00:51.763Z,1.90
2024-01-05T07:03:18.527Z,2.40
2024-01-05T07:05:45.341Z,1.88
2024-01-05T07:08:11.984Z,1.95
2024-01-05T07:10:38.532Z,1.92
2024-01-05T07:13:08.153Z,2.55
2024-01-05T07:15:34.984Z,1.80
2024-01-05T07:18:01.731Z,1.48
2024-01-05T07:20:28.441Z,2.20
2024-01-05T07:22:54.976Z,1.45
2024-01-05T07:25:21.501Z,1.48
2024-01-05T07:27:48.063Z,1.80
2024-01-05T07:30:14.769Z,1.42
2024-01-05T07:32:41.735Z,1.65
2024-01-05T07:35:08.670Z,1.48
2024-01-05T07:37:35.336Z,1.98
2024-01-05T07:40:03.803Z,1.67
2024-01-05T07:42:32.030Z,1.60
2024-01-05T07:44:59.145Z,1.83
2024-01-05T07:47:25.795Z,1.40
2024-01-05T07:49:52.425Z,1.50
2024-01-05T07:52:19.067Z,1.20
2024-01-05T07:54:45.857Z,1.33
2024-01-05T07:57:12.509Z,1.42
2024-01-05T07:59:39.148Z,1.70
2024-01-05T08:02:05.961Z,1.00
2024-01-05T08:04:32.709Z,1.50
2024-01-05T08:06:59.745Z,1.10
2024-01-05T08:09:26.584Z,1.20
2024-01-05T08:11:53.218Z,1.33
2024-01-05T08:14:19.823Z,1.10
2024-01-05T08:16:46.429Z,1.02
2024-01-05T08:19:14.664Z,1.10
2024-01-05T08:21:41.632Z,1.13
2024-01-05T08:24:08.561Z,1.30
2024-01-05T08:26:35.216Z,0.90
2024-01-05T08:29:01.787Z,1.17
2024-01-05T08:31:28.479Z,0.95
2024-01-05T08:33:55.236Z,0.80
2024-01-05T08:36:21.908Z,0.95
2024-01-05T08:38:48.548Z,0.82
2024-01-05T08:41:15.162Z,0.90
2024-01-05T08:43:45.056Z,1.27
2024-01-05T08:46:12.155Z,0.95
2024-01-05T08:48:40.363Z,0.90
2024-01-05T08:51:07.064Z,1.05
2024-01-05T08:53:33.661Z,0.70
2024-01-05T08:56:00.201Z,0.95
2024-01-05T08:58:28.177Z,0.80
2024-01-05T09:00:55.113Z,0.80
2024-01-05T09:03:21.867Z,0.70
2024-01-05T09:05:48.563Z,0.70
2024-01-05T09:08:15.220Z,0.40
2024-01-05T09:10:41.849Z,0.70
2024-01-05T09:13:08.675Z,0.60
2024-01-05T09:15:35.444Z,0.68
2024-01-05T09:18:03.235Z,0.82
2024-01-05T09:20:29.895Z,0.80
2024-01-05T09:22:56.465Z,0.60
2024-01-05T09:25:23.482Z,0.70
2024-01-05T09:27:50.162Z,0.70
2024-01-05T09:30:16.961Z,0.55
2024-01-05T09:32:43.716Z,0.47
2024-01-05T09:35:10.335Z,0.63
2024-01-05T09:37:37.345Z,0.60
2024-01-05T09:40:04.419Z,0.60
2024-01-05T09:42:31.121Z,0.90
2024-01-05T09:44:58.296Z,0.80
2024-01-05T09:47:25.020Z,0.75
2024-01-05T09:49:52.993Z,0.75
2024-01-05T09:52:21.265Z,0.70
2024-01-05T09:54:48.116Z,0.63
2024-01-05T09:57:17.402Z,0.60
2024-01-05T09:59:46.921Z,0.68
2024-01-05T10:02:16.897Z,1.15
2024-01-05T10:04:43.562Z,0.70
2024-01-05T10:07:10.251Z,0.73
2024-01-05T10:09:50.379Z,0.80
2024-01-05T10:12:18.957Z,0.60
2024-01-05T10:14:48.762Z,0.70
2024-01-05T10:17:18.667Z,0.70
2024-01-05T10:19:45.352Z,0.52
2024-01-05T10:22:13.886Z,0.57
2024-01-05T10:24:42.265Z,0.70
2024-01-05T10:27:10.516Z,0.60
2024-01-05T10:29:43.845Z,0.80
2024-01-05T10:32:14.784Z,0.85
2024-01-05T10:34:47.949Z,0.80
2024-01-05T10:37:19.005Z,0.63
2024-01-05T10:39:49.872Z,0.68
2024-01-05T10:42:28.249Z,0.90
2024-01-05T10:44:56.915Z,0.70
2024-01-05T10:47:26.827Z,0.68
2024-01-05T10:49:56.408Z,0.80
2024-01-05T10:52:26.181Z,1.00
2024-01-05T10:54:53.663Z,0.80
2024-01-05T10:57:22.045Z,0.90
2024-01-05T10:59:50.385Z,1.10
2024-01-05T11:02:23.325Z,0.90
2024-01-05T11:05:13.972Z,0.50
2024-01-05T11:07:42.259Z,0.73
2024-01-05T11:10:27.140Z,0.80
2024-01-05T11:13:12.936Z,0.75
2024-01-05T11:16:01.219Z,0.95
2024-01-05T11:18:39.941Z,0.85
2024-01-05T11:21:12.801Z,0.90
2024-01-05T11:23:41.706Z,0.60
2024-01-05T11:26:33.583Z,1.05
2024-01-05T11:29:00.206Z,1.15
2024-01-05T11:31:49.894Z,0.80
2024-01-05T11:34:37.130Z,0.80
2024-01-05T11:37:06.034Z,1.10
2024-01-05T11:39:50.861Z,1.00
2024-01-05T11:42:26.720Z,1.00
2024-01-05T11:44:53.577Z,0.93
2024-01-05T11:47:45.398Z,1.00
2024-01-05T11:50:34.643Z,1.23
2024-01-05T11:53:18.256Z,1.08
2024-01-05T11:55:57.347Z,0.90
2024-01-05T11:58:29.525Z,0.90
2024-01-05T12:00:57.664Z,1.02
2024-01-05T12:03:26.862Z,0.80
2024-01-05T12:05:57.747Z,1.13
2024-01-05T12:08:24.762Z,1.08
2024-01-05T12:10:55.703Z,1.02
2024-01-05T12:13:24.612Z,1.00
2024-01-05T12:16:01.008Z,1.17
2024-01-05T12:18:37.061Z,1.27
2024-01-05T12:21:06.977Z,1.60
2024-01-05T12:23:35.592Z,1.17
2024-01-05T12:26:06.965Z,1.20
2024-01-05T12:28:35.091Z,1.00
2024-01-05T12:31:03.380Z,1.20
2024-01-05T12:33:31.842Z,1.25
2024-01-05T12:35:58.976Z,1.13
2024-01-05T12:38:30.214Z,0.90
2024-01-05T12:43:35.937Z,1.23
2024-01-05T12:46:05.086Z,1.40
2024-01-05T12:48:33.199Z,1.08
2024-01-05T12:51:10.233Z,2.40
2024-01-05T12:53:37.450Z,20.13
2024-01-05T12:56:11.621Z,1.85
2024-01-05T12:58:40.315Z,1.48
2024-01-05T13:01:15.918Z,1.52
2024-01-05T13:03:58.229Z,1.55
2024-01-05T13:06:30.750Z,2.03
2024-01-05T13:08:57.514Z,1.50
2024-01-05T13:11:24.504Z,1.17
2024-01-05T13:13:51.700Z,1.38
2024-01-05T13:16:18.375Z,1.35
2024-01-05T13:18:45.144Z,1.20
2024-01-05T13:21:12.141Z,1.50
2024-01-05T13:23:41.331Z,1.40
2024-01-05T13:26:07.895Z,1.85
2024-01-05T13:28:36.801Z,1.50
2024-01-05T13:31:04.766Z,1.80
2024-01-05T13:33:32.544Z,1.50
2024-01-05T13:35:59.358Z,1.45
2024-01-05T13:38:26.012Z,1.33
2024-01-05T13:40:52.570Z,1.63
2024-01-05T13:43:19.155Z,1.25
2024-01-05T13:45:45.824Z,1.55
2024-01-05T13:48:14.498Z,1.50
2024-01-05T13:50:41.288Z,1.80
2024-01-05T13:53:12.148Z,1.23
2024-01-05T13:55:38.957Z,1.27
2024-01-05T13:58:05.593Z,1.60
2024-01-05T14:00:32.255Z,1.58
2024-01-05T14:02:58.908Z,2.10
2024-01-05T14:05:25.547Z,1.20
2024-01-05T14:07:52.162Z,1.35
2024-01-05T14:10:18.711Z,1.50
2024-01-05T14:12:45.435Z,1.58
2024-01-05T14:15:12.128Z,1.70
2024-01-05T14:17:38.692Z,2.03
2024-01-05T14:20:07.287Z,1.77
2024-01-05T14:22:35.389Z,2.33
2024-01-05T14:25:05.629Z,1.80
2024-01-05T14:27:32.331Z,2.03
2024-01-05T14:29:58.909Z,1.50
2024-01-05T14:32:25.494Z,1.63
2024-01-05T14:34:52.217Z,1.55
2024-01-05T14:37:18.778Z,1.42
2024-01-05T14:39:45.429Z,1.83
2024-01-05T14:42:12.007Z,1.40
2024-01-05T14:44:38.653Z,1.85
2024-01-05T14:47:05.244Z,1.50
2024-01-05T14:49:32.285Z,1.70
2024-01-05T14:52:01.095Z,2.13
2024-01-05T14:54:28.365Z,1.98
2024-01-05T14:56:55.387Z,1.92
2024-01-05T14:59:22.244Z,2.03
2024-01-05T15:01:48.995Z,1.55
2024-01-05T15:04:15.813Z,2.88
2024-01-05T15:06:42.534Z,2.22
2024-01-05T15:09:09.596Z,1.98
2024-01-05T15:11:36.267Z,2.22
2024-01-05T15:14:05.106Z,2.28
2024-01-05T15:16:38.615Z,2.28
2024-01-05T15:19:06.353Z,1.98
2024-01-05T15:21:33.193Z,1.80
2024-01-05T15:23:59.888Z,2.10
2024-01-05T15:26:27.180Z,1.80
2024-01-05T15:28:53.719Z,1.98
2024-01-05T15:31:21.581Z,2.17
2024-01-05T15:33:48.693Z,1.63
2024-01-05T15:36:18.490Z,2.22
2024-01-05T15:38:47.932Z,2.03
2024-01-05T15:41:14.558Z,1.88
2024-01-05T15:43:41.177Z,2.03
2024-01-05T15:46:10.293Z,1.98
2024-01-05T15:48:40.705Z,2.17
2024-01-05T15:51:14.850Z,2.00
2024-01-05T15:53:42.503Z,1.73
2024-01-05T15:56:09.737Z,1.70
2024-01-05T15:58:36.350Z,1.88
2024-01-05T16:01:03.501Z,17.75
2024-01-05T16:03:30.212Z,2.60
2024-01-05T16:05:56.838Z,2.20
2024-01-05T16:08:23.460Z,2.60
2024-01-05T16:10:50.085Z,2.53
2024-01-05T16:13:16.692Z,2.42
2024-01-05T16:15:43.368Z,2.20
2024-01-05T16:18:10.479Z,2.20
2024-01-05T16:20:39.862Z,2.30
2024-01-05T16:23:06.396Z,2.28
2024-01-05T16:25:32.965Z,2.20
2024-01-05T16:27:59.602Z,2.88
2024-01-05T16:30:26.268Z,2.38
2024-01-05T16:32:52.976Z,1.98
2024-01-05T16:35:19.654Z,2.83
2024-01-05T16:37:46.330Z,2.45
2024-01-05T16:40:13.086Z,2.28
2024-01-05T16:42:39.830Z,2.80
2024-01-05T16:45:06.931Z,2.90
2024-01-05T16:47:33.627Z,3.17
2024-01-05T16:50:00.386Z,2.67
2024-01-05T16:52:27.212Z,2.80
2024-01-05T16:54:53.790Z,2.50
2024-01-05T16:57:20.802Z,3.35
2024-01-05T16:59:47.609Z,3.05
2024-01-05T17:02:14.134Z,3.35
2024-01-05T17:04:41.028Z,3.35
2024-01-05T17:07:07.824Z,4.75
2024-01-05T17:09:35.828Z,3.63
2024-01-05T17:12:02.617Z,3.47
2024-01-05T17:14:29.245Z,3.78
2024-01-05T17:16:55.795Z,3.30
2024-01-05T17:19:22.439Z,3.13
2024-01-05T17:21:50.074Z,4.05
2024-01-05T17:24:16.891Z,4.03
2024-01-05T17:26:43.580Z,5.07
2024-01-05T17:29:10.302Z,4.85
2024-01-05T17:31:37.019Z,3.90
2024-01-05T17:34:03.701Z,3.83
2024-01-05T17:36:30.723Z,5.53
2024-01-05T17:38:57.881Z,3.78
2024-01-05T17:41:24.451Z,4.05
2024-01-05T17:43:51.050Z,4.20
2024-01-05T17:46:17.607Z,5.13
2024-01-05T17:48:44.449Z,4.70
2024-01-05T17:51:11.190Z,4.65
2024-01-05T17:53:39.463Z,4.10
2024-01-05T17:56:06.625Z,4.72
2024-01-05T17:58:33.251Z,4.75
2024-01-05T18:00:59.957Z,3.60
2024-01-05T18:03:28.107Z,3.90
2024-01-05T18:05:54.840Z,4.00
2024-01-05T18:08:21.384Z,7.22
2024-01-05T18:10:47.972Z,4.68
2024-01-05T18:13:15.353Z,4.30
2024-01-05T18:15:41.968Z,4.85
2024-01-05T18:18:09.083Z,6.13
2024-01-05T18:20:35.749Z,4.85
2024-01-05T18:23:02.422Z,4.63
2024-01-05T18:25:31.265Z,4.53
2024-01-05T18:28:01.226Z,4.50
2024-01-05T18:30:28.059Z,4.38
2024-01-05T18:32:54.712Z,4.13
2024-01-05T18:35:22.229Z,4.57
2024-01-05T18:37:48.791Z,5.00
2024-01-05T18:40:15.566Z,5.28
2024-01-05T18:42:42.369Z,4.68
2024-01-05T18:45:09.522Z,4.68
2024-01-05T18:47:36.163Z,4.93
2024-01-05T18:50:04.121Z,5.35
2024-01-05T18:52:30.824Z,4.63
2024-01-05T18:54:58.680Z,5.00
2024-01-05T18:57:25.465Z,5.43
2024-01-05T18:59:51.996Z,4.78
2024-01-05T19:02:21.438Z,7.03
2024-01-05T19:04:48.103Z,5.70
2024-01-05T19:07:15.466Z,5.55
2024-01-05T19:09:42.122Z,5.60
2024-01-05T19:12:08.854Z,5.47
2024-01-05T19:14:35.478Z,6.97
2024-01-05T19:17:02.034Z,5.43
2024-01-05T19:19:28.758Z,6.05
2024-01-05T19:21:57.605Z,6.13
2024-01-05T19:24:25.672Z,7.35
2024-01-05T19:26:52.559Z,5.70
2024-01-05T19:29:19.193Z,6.18
2024-01-05T19:31:45.808Z,5.63
2024-01-05T19:34:13.081Z,5.57
2024-01-05T19:36:46.741Z,5.72
2024-01-05T19:39:13.954Z,5.72
2024-01-05T19:41:48.077Z,6.25
2024-01-05T19:44:18.499Z,6.47
2024-01-05T19:46:45.449Z,6.13
2024-01-05T19:49:12.213Z,6.93
2024-01-05T19:51:48.880Z,6.60
2024-01-05T19:54:17.561Z,6.85
2024-01-05T19:56:45.320Z,6.93
2024-01-05T19:59:12.168Z,7.47
2024-01-05T20:01:41.110Z,7.68
2024-01-05T20:04:07.785Z,7.82
2024-01-05T20:06:37.212Z,7.88
2024-01-05T20:09:06.127Z,8.52
2024-01-05T20:11:32.887Z,8.65
2024-01-05T20:13:59.898Z,8.93
2024-01-05T20:16:26.458Z,9.35
2024-01-05T20:18:53.231Z,8.30
2024-01-05T20:21:20.058Z,9.65
2024-01-05T20:23:46.748Z,9.48
2024-01-05T20:26:22.805Z,9.65
2024-01-05T20:28:52.332Z,10.30
2024-01-05T20:31:20.153Z,9.43
2024-01-05T20:33:47.135Z,9.85
2024-01-05T20:36:19.329Z,8.63
2024-01-05T20:38:46.264Z,9.10
2024-01-05T20:41:12.988Z,9.43
2024-01-05T20:43:42.500Z,9.68
2024-01-05T20:46:08.994Z,9.57
2024-01-05T20:48:37.430Z,9.82
2024-01-05T20:51:04.268Z,18.38
2024-01-05T20:53:30.908Z,11.57
2024-01-05T20:55:57.513Z,11.18
2024-01-05T20:58:24.082Z,10.65
2024-01-05T21:00:51.665Z,12.20
2024-01-05T21:03:19.047Z,10.73
2024-01-05T21:05:45.902Z,11.88
2024-01-05T21:08:14.010Z,12.23
2024-01-05T21:10:40.707Z,11.95
2024-01-05T21:13:07.354Z,11.93
2024-01-05T21:15:34.091Z,13.57
2024-01-05T21:18:00.807Z,13.63
2024-01-05T21:20:27.416Z,12.32
2024-01-05T21:22:54.288Z,11.43
2024-01-05T21:25:21.498Z,11.52
2024-01-05T21:27:49.168Z,12.80
2024-01-05T21:30:17.683Z,12.77
2024-01-05T21:32:44.283Z,12.27
2024-01-05T21:35:10.907Z,12.00
2024-01-05T21:37:37.475Z,12.65
2024-01-05T21:40:06.159Z,12.77
2024-01-05T21:42:32.767Z,13.68
2024-01-05T21:44:59.483Z,12.27
2024-01-05T21:47:26.101Z,13.50
2024-01-05T21:49:52.975Z,13.50
2024-01-05T21:52:19.595Z,12.85
2024-01-05T21:54:46.876Z,13.20
2024-01-05T21:57:13.603Z,13.15
2024-01-05T21:59:40.264Z,14.07
2024-01-05T22:02:07.021Z,14.05
2024-01-05T22:04:34.713Z,14.20
2024-01-05T22:07:04.437Z,13.65
2024-01-05T22:09:31.176Z,14.45
2024-01-05T22:11:57.996Z,14.55
2024-01-05T22:14:24.640Z,13.88
2024-01-05T22:16:53.662Z,19.38
2024-01-05T22:19:21.643Z,17.95
2024-01-05T22:21:48.410Z,17.35
2024-01-05T22:24:15.076Z,17.23
2024-01-05T22:26:41.620Z,16.70
2024-01-05T22:29:08.220Z,16.15
2024-01-05T22:31:34.965Z,17.17
2024-01-05T22:34:02.069Z,17.25
2024-01-05T22:36:29.056Z,16.35
2024-01-05T22:38:55.701Z,16.13
2024-01-05T22:41:23.739Z,15.95
2024-01-05T22:43:52.094Z,16.58
2024-01-05T22:46:18.746Z,14.85
2024-01-05T22:48:47.412Z,17.02
2024-01-05T22:51:25.139Z,16.58
2024-01-05T22:53:51.766Z,17.10
2024-01-05T22:56:18.326Z,16.90
2024-01-05T22:58:45.385Z,17.67
2024-01-05T23:01:19.530Z,17.83
2024-01-05T23:03:47.950Z,19.42
2024-01-05T23:06:15.012Z,17.42
2024-01-05T23:08:41.849Z,18.23
2024-01-05T23:11:09.554Z,17.80
2024-01-05T23:13:36.394Z,18.20
2024-01-05T23:16:03.317Z,17.95
2024-01-05T23:18:30.465Z,17.48
2024-01-05T23:20:57.043Z,18.17
2024-01-05T23:23:23.648Z,17.70
2024-01-05T23:25:50.196Z,18.60
2024-01-05T23:28:16.957Z,17.70
2024-01-05T23:30:43.599Z,19.65
2024-01-05T23:33:10.456Z,18.88
2024-01-05T23:35:37.106Z,19.80
2024-01-05T23:38:03.806Z,19.73
2024-01-05T23:40:30.359Z,19.10
2024-01-05T23:42:56.892Z,19.00
2024-01-05T23:45:23.449Z,17.85
2024-01-05T23:47:50.065Z,18.98
2024-01-05T23:50:17.008Z,19.83
2024-01-05T23:52:43.577Z,19.63
2024-01-05T23:55:10.101Z,19.42
2024-01-05T23:57:36.706Z,19.95
